Terminal Aerodrome Forecast
Issued by NWS

Home | Current Version | Previous Version | Text Only | Print | Product List | Glossary Off
Versions: 1 2 3 4 5 6 7 8 9 10 11 12 13 14 15 16 17 18 19 20 21 22 23 24 25 26 27 28 29 30 31 32 33 34 35 36 37 38

000
FTUS43 KLOT 222200 AAC
TAFORD
TAF AMD
KORD 222200Z 2222/2324 20010KT P6SM OVC020
     FM230200 20012KT 4SM BR SCT012 OVC020
     FM230600 20012KT 3SM BR BKN010 OVC020 WS020/21045KT
     FM231000 20013KT 2SM -RA BR OVC007
     FM231700 18014KT 2SM RA BR OVC007=

USA.gov is the U.S. government's official web portal to all federal, state and local government web resources and services.